createdAt,value
2022-08-28T00:01:28.138Z,66.57
2022-08-28T00:04:34.754Z,66.64
2022-08-28T00:07:47.028Z,66.47
2022-08-28T00:10:56.950Z,66.57
2022-08-28T00:14:03.895Z,66.97
2022-08-28T00:17:10.342Z,66.88
2022-08-28T00:20:18.885Z,66.72
2022-08-28T00:23:25.926Z,66.80
2022-08-28T00:27:07.653Z,66.97
2022-08-28T00:30:14.190Z,67.08
2022-08-28T00:33:23.556Z,67.06
2022-08-28T00:36:30.433Z,67.30
2022-08-28T00:39:37.737Z,67.37
2022-08-28T00:42:47.224Z,67.39
2022-08-28T00:45:54.384Z,67.20
2022-08-28T00:49:00.397Z,67.25
2022-08-28T00:52:15.537Z,66.97
2022-08-28T00:55:24.225Z,67.04
2022-08-28T00:58:33.862Z,67.43
2022-08-28T01:01:40.118Z,67.85
2022-08-28T01:04:48.624Z,68.08
2022-08-28T01:07:56.179Z,68.31
2022-08-28T01:11:07.524Z,68.03
2022-08-28T01:14:18.413Z,68.18
2022-08-28T01:17:28.864Z,68.29
2022-08-28T01:20:37.950Z,68.40
2022-08-28T01:23:54.782Z,68.53
2022-08-28T01:27:00.736Z,68.83
2022-08-28T01:30:09.286Z,69.13
2022-08-28T01:33:17.020Z,69.25
2022-08-28T01:36:25.427Z,69.39
2022-08-28T01:39:34.161Z,69.50
2022-08-28T01:42:41.810Z,69.36
2022-08-28T01:45:53.195Z,69.35
2022-08-28T01:49:00.754Z,69.63
2022-08-28T01:52:09.666Z,69.54
2022-08-28T01:55:21.731Z,69.82
2022-08-28T01:58:28.629Z,70.12
2022-08-28T02:01:37.336Z,70.36
2022-08-28T02:04:47.561Z,70.05
2022-08-28T02:07:57.390Z,70.23
2022-08-28T02:11:07.670Z,70.19
2022-08-28T02:14:14.555Z,70.29
2022-08-28T02:17:20.776Z,70.38
2022-08-28T02:20:29.120Z,70.18
2022-08-28T02:23:35.059Z,70.31
2022-08-28T02:26:45.104Z,70.04
2022-08-28T02:29:51.071Z,70.75
2022-08-28T02:33:00.365Z,70.35
2022-08-28T02:36:10.168Z,70.73
2022-08-28T02:39:16.915Z,70.81
2022-08-28T02:42:26.554Z,70.75
2022-08-28T02:45:33.715Z,70.74
2022-08-28T02:48:42.183Z,70.69
2022-08-28T02:51:49.018Z,70.63
2022-08-28T02:54:55.080Z,70.72
2022-08-28T02:58:06.982Z,70.79
2022-08-28T03:01:15.471Z,70.72
2022-08-28T03:04:22.562Z,70.86
2022-08-28T03:07:28.592Z,70.74
2022-08-28T03:10:35.680Z,70.87
2022-08-28T03:13:45.108Z,70.98
2022-08-28T03:16:52.371Z,70.82
2022-08-28T03:19:58.320Z,70.95
2022-08-28T03:23:22.809Z,71.08
2022-08-28T03:26:29.964Z,70.92
2022-08-28T03:29:40.041Z,71.07
2022-08-28T03:32:45.899Z,71.25
2022-08-28T03:35:53.039Z,71.16
2022-08-28T03:39:03.608Z,71.01
2022-08-28T03:42:12.234Z,71.26
2022-08-28T03:45:22.875Z,71.44
2022-08-28T03:48:30.205Z,71.76
2022-08-28T03:51:37.814Z,71.55
2022-08-28T03:54:45.211Z,71.43
2022-08-28T03:57:52.371Z,71.76
2022-08-28T04:01:03.189Z,71.76
2022-08-28T04:04:09.815Z,71.74
2022-08-28T04:07:16.866Z,71.73
2022-08-28T04:10:23.175Z,71.75
2022-08-28T04:13:30.738Z,72.24
2022-08-28T04:16:39.595Z,72.28
2022-08-28T04:19:46.561Z,72.19
2022-08-28T04:22:55.258Z,72.26
2022-08-28T04:26:03.101Z,72.47
2022-08-28T04:29:10.528Z,72.40
2022-08-28T04:32:20.154Z,72.46
2022-08-28T04:35:26.022Z,72.43
2022-08-28T04:38:34.292Z,72.39
2022-08-28T04:41:41.022Z,72.84
2022-08-28T04:44:47.796Z,73.08
2022-08-28T04:47:56.739Z,73.41
2022-08-28T04:51:04.215Z,73.91
2022-08-28T04:54:11.113Z,74.11
2022-08-28T04:57:17.869Z,74.76
2022-08-28T05:00:24.177Z,75.02
2022-08-28T05:03:33.769Z,74.78
2022-08-28T05:06:43.541Z,75.19
2022-08-28T05:09:50.717Z,74.96
2022-08-28T05:12:56.891Z,75.05
2022-08-28T05:16:07.618Z,74.82
2022-08-28T05:19:16.800Z,74.92
2022-08-28T05:22:24.069Z,75.07
2022-08-28T05:25:30.160Z,75.35
2022-08-28T05:28:36.873Z,75.50
2022-08-28T05:31:44.178Z,75.77
2022-08-28T05:34:56.112Z,75.71
2022-08-28T05:38:03.103Z,76.04
2022-08-28T05:41:10.641Z,75.54
2022-08-28T05:44:19.207Z,75.82
2022-08-28T05:47:26.228Z,76.12
2022-08-28T05:50:35.301Z,76.15
2022-08-28T05:53:44.208Z,76.26
2022-08-28T05:56:50.213Z,76.22
2022-08-28T05:59:57.475Z,76.44
2022-08-28T06:03:03.619Z,76.40
2022-08-28T06:06:14.829Z,76.39
2022-08-28T06:09:28.731Z,76.65
2022-08-28T06:12:36.488Z,76.55
2022-08-28T06:15:45.731Z,76.82
2022-08-28T06:18:52.583Z,76.62
2022-08-28T06:22:07.091Z,76.15
2022-08-28T06:25:14.498Z,75.53
2022-08-28T06:28:22.367Z,74.71
2022-08-28T06:31:33.279Z,74.61
2022-08-28T06:34:39.717Z,74.53
2022-08-28T06:37:49.233Z,73.86
2022-08-28T06:40:57.461Z,73.31
2022-08-28T06:44:04.216Z,73.49
2022-08-28T06:47:11.648Z,74.00
2022-08-28T06:50:18.571Z,73.49
2022-08-28T06:53:29.871Z,72.36
2022-08-28T06:56:37.117Z,73.00
2022-08-28T06:59:43.316Z,71.78
2022-08-28T07:02:50.073Z,70.83
2022-08-28T07:05:59.130Z,70.61
2022-08-28T07:09:11.492Z,69.81
2022-08-28T07:12:17.862Z,70.40
2022-08-28T07:15:25.116Z,70.21
2022-08-28T07:18:31.248Z,69.96
2022-08-28T07:21:40.055Z,69.69
2022-08-28T07:24:48.801Z,69.24
2022-08-28T07:27:55.676Z,69.35
2022-08-28T07:31:03.727Z,69.31
2022-08-28T07:34:10.606Z,69.23
2022-08-28T07:37:18.122Z,69.46
2022-08-28T07:40:28.161Z,68.42
2022-08-28T07:43:49.966Z,67.85
2022-08-28T07:46:57.644Z,67.83
2022-08-28T07:50:03.876Z,66.91
2022-08-28T07:53:10.621Z,67.12
2022-08-28T07:56:19.352Z,67.01
2022-08-28T07:59:26.313Z,66.29
2022-08-28T08:02:33.071Z,66.85
2022-08-28T08:05:40.134Z,67.11
2022-08-28T08:08:46.595Z,67.57
2022-08-28T08:11:56.874Z,67.53
2022-08-28T08:15:04.252Z,66.94
2022-08-28T08:18:11.085Z,67.52
2022-08-28T08:21:19.329Z,67.28
2022-08-28T08:24:28.633Z,66.54
2022-08-28T08:27:42.350Z,66.27
2022-08-28T08:30:50.044Z,66.77
2022-08-28T08:33:59.402Z,66.72
2022-08-28T08:37:08.696Z,66.31
2022-08-28T08:40:19.766Z,67.13
2022-08-28T08:43:32.181Z,66.79
2022-08-28T08:46:42.455Z,65.94
2022-08-28T08:49:54.587Z,66.47
2022-08-28T08:53:22.179Z,66.71
2022-08-28T08:56:35.022Z,66.45
2022-08-28T08:59:45.111Z,66.79
2022-08-28T09:03:03.523Z,66.60
2022-08-28T09:06:14.842Z,66.39
2022-08-28T09:09:29.979Z,65.86
2022-08-28T09:12:52.798Z,65.59
2022-08-28T09:16:03.668Z,65.94
2022-08-28T09:19:13.167Z,66.28
2022-08-28T09:22:20.202Z,65.63
2022-08-28T09:25:50.989Z,65.58
2022-08-28T09:29:06.978Z,65.79
2022-08-28T09:32:27.537Z,65.08
2022-08-28T09:35:35.571Z,64.55
2022-08-28T09:38:41.811Z,63.87
2022-08-28T09:42:33.902Z,64.56
2022-08-28T09:45:39.869Z,64.29
2022-08-28T09:48:52.536Z,62.30
2022-08-28T09:51:59.810Z,62.92
2022-08-28T09:55:09.574Z,62.77
2022-08-28T09:58:15.885Z,61.95
2022-08-28T10:01:47.167Z,62.28
2022-08-28T10:05:16.387Z,61.69
2022-08-28T10:08:34.201Z,61.83
2022-08-28T10:11:49.691Z,61.79
2022-08-28T10:15:11.777Z,61.44
2022-08-28T10:18:34.134Z,61.02
2022-08-28T10:21:52.747Z,60.60
2022-08-28T10:25:12.601Z,60.80
2022-08-28T10:28:34.774Z,61.22
2022-08-28T10:31:50.297Z,61.63
2022-08-28T10:35:06.344Z,62.01
2022-08-28T10:38:17.410Z,60.92
2022-08-28T10:41:30.688Z,61.35
2022-08-28T10:44:43.987Z,61.12
2022-08-28T10:47:55.614Z,60.59
2022-08-28T10:51:06.183Z,59.86
2022-08-28T10:54:26.151Z,60.48
2022-08-28T10:57:39.737Z,60.45
2022-08-28T11:00:49.265Z,60.63
2022-08-28T11:03:56.277Z,61.61
2022-08-28T11:07:09.225Z,61.26
2022-08-28T11:10:25.668Z,61.49
2022-08-28T11:13:59.949Z,60.56
2022-08-28T11:17:10.515Z,60.51
2022-08-28T11:20:25.367Z,59.74
2022-08-28T11:23:39.521Z,59.80
2022-08-28T11:27:01.379Z,60.50
2022-08-28T11:30:36.968Z,60.51
2022-08-28T11:33:46.914Z,61.03
2022-08-28T11:37:03.583Z,61.22
2022-08-28T11:40:20.385Z,60.49
2022-08-28T11:43:44.018Z,60.71
2022-08-28T11:46:52.697Z,60.99
2022-08-28T11:49:59.351Z,60.18
2022-08-28T11:53:36.854Z,60.42
2022-08-28T11:56:54.853Z,60.65
2022-08-28T12:00:13.364Z,60.04
2022-08-28T12:03:30.041Z,60.14
2022-08-28T12:06:55.108Z,60.45
2022-08-28T12:10:05.101Z,60.00
2022-08-28T12:13:12.895Z,59.52
2022-08-28T12:16:22.624Z,59.45
2022-08-28T12:19:32.022Z,59.13
2022-08-28T12:22:48.101Z,58.50
2022-08-28T12:26:03.462Z,57.33
2022-08-28T12:29:27.280Z,56.46
2022-08-28T12:32:43.940Z,57.22
2022-08-28T12:35:50.107Z,57.55
2022-08-28T12:38:59.288Z,57.36
2022-08-28T12:42:07.492Z,57.30
2022-08-28T12:45:21.714Z,57.16
2022-08-28T12:48:34.431Z,57.54
2022-08-28T12:51:41.615Z,57.69
2022-08-28T12:54:48.697Z,58.79
2022-08-28T12:57:56.393Z,59.35
2022-08-28T13:01:07.239Z,59.79
2022-08-28T13:04:31.428Z,60.44
2022-08-28T13:07:42.014Z,60.95
2022-08-28T13:10:52.561Z,61.33
2022-08-28T13:13:58.515Z,60.94
2022-08-28T13:17:07.790Z,61.41
2022-08-28T13:20:27.483Z,61.40
2022-08-28T13:23:34.247Z,59.67
2022-08-28T13:26:41.118Z,60.51
2022-08-28T13:29:59.969Z,62.32
2022-08-28T13:33:21.347Z,64.70
2022-08-28T13:36:31.142Z,65.87
2022-08-28T13:39:39.404Z,67.72
2022-08-28T13:42:47.083Z,68.89
2022-08-28T13:45:54.394Z,68.95
2022-08-28T13:49:03.298Z,70.46
2022-08-28T13:52:13.331Z,71.59
2022-08-28T13:55:20.047Z,72.76
2022-08-28T13:58:57.709Z,73.45
2022-08-28T14:02:25.646Z,74.29
2022-08-28T14:05:32.302Z,74.53
2022-08-28T14:08:43.645Z,75.82
2022-08-28T14:11:50.446Z,76.19
2022-08-28T14:14:57.396Z,77.01
2022-08-28T14:18:03.843Z,77.35
2022-08-28T14:21:11.060Z,77.90
2022-08-28T14:24:20.566Z,78.49
2022-08-28T14:27:31.427Z,78.51
2022-08-28T14:30:38.053Z,78.91
2022-08-28T14:33:45.752Z,79.47
2022-08-28T14:36:55.506Z,79.97
2022-08-28T14:40:06.848Z,80.16
2022-08-28T14:43:14.471Z,80.84
2022-08-28T14:46:23.685Z,81.16
2022-08-28T14:49:30.876Z,81.06
2022-08-28T14:52:37.714Z,79.51
2022-08-28T14:55:48.522Z,78.90
2022-08-28T14:58:55.255Z,78.77
2022-08-28T15:02:03.092Z,78.64
2022-08-28T15:05:12.135Z,78.57
2022-08-28T15:08:20.072Z,78.77
2022-08-28T15:11:31.063Z,78.20
2022-08-28T15:14:37.744Z,78.40
2022-08-28T15:17:44.869Z,77.47
2022-08-28T15:20:50.838Z,77.87
2022-08-28T15:24:02.899Z,78.34
2022-08-28T15:27:12.155Z,77.97
2022-08-28T15:30:19.476Z,78.32
2022-08-28T15:33:25.377Z,78.84
2022-08-28T15:36:32.132Z,79.32
2022-08-28T15:39:54.289Z,81.06
2022-08-28T15:43:03.809Z,82.60
2022-08-28T15:46:16.420Z,83.57
2022-08-28T15:49:24.132Z,84.10
2022-08-28T15:52:30.121Z,84.44
2022-08-28T15:55:37.101Z,85.17
2022-08-28T15:58:45.863Z,83.63
2022-08-28T16:01:53.235Z,81.75
2022-08-28T16:04:59.265Z,83.86
2022-08-28T16:08:07.393Z,83.98
2022-08-28T16:11:13.486Z,82.81
2022-08-28T16:14:23.104Z,83.82
2022-08-28T16:17:29.149Z,84.35
2022-08-28T16:20:35.837Z,84.45
2022-08-28T16:23:42.136Z,84.76
2022-08-28T16:26:48.913Z,85.39
2022-08-28T16:29:57.587Z,84.86
2022-08-28T16:33:06.204Z,85.99
2022-08-28T16:36:14.543Z,85.80
2022-08-28T16:39:21.505Z,86.76
2022-08-28T16:42:32.666Z,86.65
2022-08-28T16:45:46.508Z,86.81
2022-08-28T16:48:53.276Z,87.28
2022-08-28T16:52:00.041Z,88.04
2022-08-28T16:55:09.910Z,88.65
2022-08-28T16:58:17.357Z,88.52
2022-08-28T17:01:26.587Z,88.92
2022-08-28T17:04:35.749Z,89.40
2022-08-28T17:07:43.711Z,89.47
2022-08-28T17:10:50.467Z,89.25
2022-08-28T17:13:57.344Z,89.19
2022-08-28T17:17:07.793Z,89.32
2022-08-28T17:20:36.704Z,89.60
2022-08-28T17:23:41.298Z,90.09
2022-08-28T17:26:47.134Z,90.49
2022-08-28T17:29:54.266Z,90.85
2022-08-28T17:33:03.141Z,90.89
2022-08-28T17:36:21.346Z,91.12
2022-08-28T17:39:39.070Z,91.01
2022-08-28T17:42:48.242Z,90.87
2022-08-28T17:45:54.154Z,91.34
2022-08-28T17:49:06.176Z,91.52
2022-08-28T17:52:12.095Z,91.36
2022-08-28T17:55:18.918Z,91.78
2022-08-28T17:58:25.366Z,92.10
2022-08-28T18:01:32.477Z,91.90
2022-08-28T18:04:41.757Z,92.08
2022-08-28T18:07:48.534Z,92.29
2022-08-28T18:10:54.856Z,92.62
2022-08-28T18:14:03.458Z,92.72
2022-08-28T18:17:10.975Z,92.74
2022-08-28T18:20:21.987Z,93.22
2022-08-28T18:23:27.900Z,93.38
2022-08-28T18:26:35.270Z,93.76
2022-08-28T18:29:41.757Z,93.81
2022-08-28T18:32:48.507Z,93.64
2022-08-28T18:35:57.415Z,93.50
2022-08-28T18:39:04.285Z,93.61
2022-08-28T18:42:10.373Z,93.52
2022-08-28T18:45:17.533Z,93.05
2022-08-28T18:48:24.859Z,93.65
2022-08-28T18:51:35.383Z,93.72
2022-08-28T18:54:41.733Z,93.34
2022-08-28T18:57:50.479Z,93.06
2022-08-28T19:00:58.840Z,93.21
2022-08-28T19:04:07.656Z,92.97
2022-08-28T19:07:16.333Z,92.49
2022-08-28T19:10:33.467Z,91.49
2022-08-28T19:13:41.306Z,91.95
2022-08-28T19:16:48.497Z,91.99
2022-08-28T19:19:55.080Z,92.00
2022-08-28T19:23:06.190Z,92.26
2022-08-28T19:26:13.270Z,92.35
2022-08-28T19:29:20.122Z,92.16
2022-08-28T19:32:27.244Z,92.02
2022-08-28T19:35:34.086Z,92.24
2022-08-28T19:38:42.957Z,91.84
2022-08-28T19:41:49.968Z,92.41
2022-08-28T19:44:59.874Z,92.43
2022-08-28T19:48:09.219Z,92.63
2022-08-28T19:51:17.582Z,92.66
2022-08-28T19:54:32.754Z,92.38
2022-08-28T19:57:38.904Z,92.25
2022-08-28T20:00:45.705Z,92.45
2022-08-28T20:03:52.698Z,91.29
2022-08-28T20:07:00.202Z,91.60
2022-08-28T20:10:11.811Z,91.00
2022-08-28T20:13:19.003Z,90.60
2022-08-28T20:16:25.722Z,90.08
2022-08-28T20:19:33.691Z,90.28
2022-08-28T20:22:40.174Z,92.38
2022-08-28T20:25:52.912Z,92.89
2022-08-28T20:28:59.328Z,93.56
2022-08-28T20:32:08.220Z,93.78
2022-08-28T20:35:16.163Z,93.96
2022-08-28T20:38:22.932Z,93.34
2022-08-28T20:41:31.562Z,93.97
2022-08-28T20:44:39.105Z,93.18
2022-08-28T20:47:45.286Z,93.14
2022-08-28T20:50:52.164Z,93.91
2022-08-28T20:54:03.072Z,94.11
2022-08-28T20:57:15.695Z,92.84
2022-08-28T21:00:21.691Z,92.21
2022-08-28T21:03:28.879Z,92.29
2022-08-28T21:06:35.441Z,92.11
2022-08-28T21:10:06.300Z,92.39
2022-08-28T21:13:12.574Z,92.68
2022-08-28T21:16:19.342Z,94.42
2022-08-28T21:19:25.413Z,94.57
2022-08-28T21:22:32.955Z,94.31
2022-08-28T21:25:40.361Z,95.64
2022-08-28T21:28:49.899Z,96.02
2022-08-28T21:31:56.514Z,94.47
2022-08-28T21:35:03.790Z,93.91
2022-08-28T21:38:09.994Z,93.70
2022-08-28T21:41:18.561Z,93.81
2022-08-28T21:44:27.244Z,93.95
2022-08-28T21:47:34.084Z,95.24
2022-08-28T21:50:40.088Z,94.75
2022-08-28T21:53:49.397Z,94.82
2022-08-28T21:56:58.517Z,94.66
2022-08-28T22:00:16.519Z,94.67
2022-08-28T22:03:28.131Z,95.36
2022-08-28T22:06:35.394Z,94.67
2022-08-28T22:09:43.413Z,94.88
2022-08-28T22:12:52.044Z,95.63
2022-08-28T22:16:00.717Z,96.67
2022-08-28T22:19:08.754Z,97.17
2022-08-28T22:22:31.029Z,97.56
2022-08-28T22:25:41.080Z,97.69
2022-08-28T22:28:48.389Z,98.20
2022-08-28T22:31:57.995Z,96.54
2022-08-28T22:35:04.148Z,96.17
2022-08-28T22:38:11.380Z,96.03
2022-08-28T22:41:18.132Z,95.97
2022-08-28T22:44:25.161Z,95.72
2022-08-28T22:47:34.670Z,95.24
2022-08-28T22:50:41.882Z,95.39
2022-08-28T22:53:48.625Z,94.99
2022-08-28T22:56:55.378Z,94.81
2022-08-28T23:00:03.728Z,94.64
2022-08-28T23:03:13.574Z,94.57
2022-08-28T23:06:20.636Z,96.26
2022-08-28T23:09:27.790Z,96.43
2022-08-28T23:12:34.691Z,96.65
2022-08-28T23:15:41.507Z,96.14
2022-08-28T23:19:07.357Z,96.05
2022-08-28T23:22:16.175Z,95.64
2022-08-28T23:25:25.063Z,95.51
2022-08-28T23:28:31.903Z,95.12
2022-08-28T23:31:38.372Z,95.22
2022-08-28T23:34:48.593Z,94.86
2022-08-28T23:37:54.637Z,95.04
2022-08-28T23:41:03.049Z,94.92
2022-08-28T23:44:09.563Z,94.80
2022-08-28T23:47:16.707Z,94.22
2022-08-28T23:50:26.797Z,93.63
2022-08-28T23:53:34.076Z,93.80
2022-08-28T23:56:42.036Z,93.52
2022-08-28T23:59:49.322Z,93.16
